createdAt,value
2022-11-08T00:01:37.261Z,51.89
2022-11-08T00:03:09.069Z,51.97
2022-11-08T00:04:40.632Z,52.07
2022-11-08T00:06:31.092Z,52.48
2022-11-08T00:08:22.156Z,52.33
2022-11-08T00:10:12.207Z,52.36
2022-11-08T00:12:02.503Z,52.55
2022-11-08T00:13:52.459Z,52.71
2022-11-08T00:15:24.073Z,52.21
2022-11-08T00:16:55.569Z,52.43
2022-11-08T00:18:27.145Z,52.74
2022-11-08T00:19:58.725Z,52.70
2022-11-08T00:21:30.271Z,52.19
2022-11-08T00:23:01.914Z,52.21
2022-11-08T00:24:35.023Z,51.98
2022-11-08T00:26:06.987Z,52.28
2022-11-08T00:27:38.497Z,51.63
2022-11-08T00:29:10.097Z,51.53
2022-11-08T00:30:42.098Z,52.00
2022-11-08T00:32:14.645Z,51.78
2022-11-08T00:33:46.367Z,51.76
2022-11-08T00:35:18.248Z,52.41
2022-11-08T00:36:49.869Z,52.12
2022-11-08T00:38:21.453Z,52.61
2022-11-08T00:39:54.201Z,52.88
2022-11-08T00:41:25.687Z,52.44
2022-11-08T00:42:57.228Z,52.97
2022-11-08T00:44:29.040Z,52.95
2022-11-08T00:46:00.519Z,52.52
2022-11-08T00:47:32.472Z,52.51
2022-11-08T00:49:04.063Z,52.82
2022-11-08T00:50:38.312Z,53.00
2022-11-08T00:52:09.985Z,52.92
2022-11-08T00:53:41.973Z,52.92
2022-11-08T00:55:13.540Z,52.78
2022-11-08T00:56:45.401Z,52.93
2022-11-08T00:58:17.356Z,53.16
2022-11-08T00:59:49.194Z,53.04
2022-11-08T01:01:21.058Z,53.04
2022-11-08T01:03:12.609Z,53.12
2022-11-08T01:04:44.445Z,53.24
2022-11-08T01:06:16.259Z,52.93
2022-11-08T01:07:47.778Z,53.14
2022-11-08T01:09:19.330Z,52.71
2022-11-08T01:10:51.353Z,53.21
2022-11-08T01:12:22.955Z,52.84
2022-11-08T01:13:58.270Z,52.66
2022-11-08T01:15:34.061Z,52.84
2022-11-08T01:17:05.562Z,53.16
2022-11-08T01:18:37.203Z,52.76
2022-11-08T01:20:08.976Z,53.02
2022-11-08T01:21:40.599Z,53.30
2022-11-08T01:23:12.570Z,53.37
2022-11-08T01:24:44.231Z,53.06
2022-11-08T01:26:16.864Z,53.00
2022-11-08T01:27:48.426Z,53.23
2022-11-08T01:29:19.975Z,53.29
2022-11-08T01:30:51.547Z,52.88
2022-11-08T01:32:23.143Z,53.23
2022-11-08T01:33:54.717Z,52.77
2022-11-08T01:35:26.381Z,52.81
2022-11-08T01:36:57.890Z,53.07
2022-11-08T01:38:29.540Z,52.79
2022-11-08T01:40:01.036Z,52.68
2022-11-08T01:41:32.602Z,53.10
2022-11-08T01:43:22.803Z,53.08
2022-11-08T01:45:01.205Z,53.29
2022-11-08T01:46:36.149Z,53.43
2022-11-08T01:48:07.682Z,53.35
2022-11-08T01:49:43.617Z,53.33
2022-11-08T01:51:15.789Z,52.78
2022-11-08T01:52:51.555Z,52.79
2022-11-08T01:54:28.950Z,52.35
2022-11-08T01:56:00.444Z,52.51
2022-11-08T01:57:52.245Z,52.63
2022-11-08T01:59:23.731Z,52.97
2022-11-08T02:00:55.443Z,52.98
2022-11-08T02:02:27.077Z,52.82
2022-11-08T02:03:58.766Z,53.29
2022-11-08T02:05:30.268Z,53.17
2022-11-08T02:07:02.587Z,53.67
2022-11-08T02:08:38.263Z,53.53
2022-11-08T02:10:10.185Z,53.42
2022-11-08T02:11:41.682Z,54.02
2022-11-08T02:13:17.424Z,53.86
2022-11-08T02:14:48.964Z,53.57
2022-11-08T02:16:20.568Z,53.77
2022-11-08T02:17:52.838Z,53.87
2022-11-08T02:19:28.226Z,53.85
2022-11-08T02:21:08.906Z,54.16
2022-11-08T02:22:42.014Z,53.95
2022-11-08T02:24:13.594Z,53.88
2022-11-08T02:25:45.133Z,53.56
2022-11-08T02:27:16.680Z,54.13
2022-11-08T02:28:48.914Z,53.91
2022-11-08T02:30:20.446Z,53.87
2022-11-08T02:31:52.271Z,53.92
2022-11-08T02:33:24.177Z,53.90
2022-11-08T02:34:57.035Z,54.36
2022-11-08T02:36:28.743Z,54.23
2022-11-08T02:38:00.289Z,54.10
2022-11-08T02:39:33.109Z,54.21
2022-11-08T02:41:04.737Z,54.37
2022-11-08T02:42:37.508Z,54.20
2022-11-08T02:44:09.017Z,54.16
2022-11-08T02:45:40.972Z,53.91
2022-11-08T02:47:12.706Z,53.65
2022-11-08T02:48:44.222Z,54.21
2022-11-08T02:50:15.772Z,54.24
2022-11-08T02:51:47.373Z,54.06
2022-11-08T02:53:18.976Z,54.21
2022-11-08T02:54:50.572Z,54.13
2022-11-08T02:56:23.449Z,54.19
2022-11-08T02:57:55.172Z,53.90
2022-11-08T02:59:26.802Z,54.27
2022-11-08T03:00:58.669Z,54.29
2022-11-08T03:02:30.332Z,54.42
2022-11-08T03:04:01.988Z,54.43
2022-11-08T03:05:33.634Z,53.99
2022-11-08T03:07:05.282Z,54.42
2022-11-08T03:08:37.157Z,53.87
2022-11-08T03:10:08.891Z,53.56
2022-11-08T03:11:40.368Z,53.65
2022-11-08T03:13:11.904Z,54.00
2022-11-08T03:14:43.479Z,54.07
2022-11-08T03:16:15.062Z,53.30
2022-11-08T03:17:46.674Z,53.52
2022-11-08T03:19:18.253Z,54.11
2022-11-08T03:20:49.858Z,54.30
2022-11-08T03:22:21.369Z,53.84
2022-11-08T03:23:52.897Z,54.77
2022-11-08T03:25:24.415Z,54.38
2022-11-08T03:26:55.984Z,54.62
2022-11-08T03:28:28.161Z,54.85
2022-11-08T03:30:00.040Z,54.44
2022-11-08T03:31:31.665Z,54.91
2022-11-08T03:33:03.221Z,54.94
2022-11-08T03:34:34.804Z,54.78
2022-11-08T03:36:06.471Z,54.68
2022-11-08T03:37:38.085Z,55.00
2022-11-08T03:39:10.444Z,54.68
2022-11-08T03:40:42.447Z,55.00
2022-11-08T03:42:14.066Z,54.84
2022-11-08T03:43:45.700Z,54.24
2022-11-08T03:45:17.891Z,54.48
2022-11-08T03:46:49.416Z,54.56
2022-11-08T03:48:23.515Z,54.39
2022-11-08T03:49:55.076Z,54.92
2022-11-08T03:51:26.560Z,54.78
2022-11-08T03:52:58.235Z,54.68
2022-11-08T03:54:29.751Z,54.66
2022-11-08T03:56:01.248Z,54.66
2022-11-08T03:57:32.780Z,54.44
2022-11-08T03:59:04.240Z,54.97
2022-11-08T04:00:35.910Z,54.44
2022-11-08T04:02:07.492Z,54.94
2022-11-08T04:03:39.057Z,54.79
2022-11-08T04:05:11.219Z,54.52
2022-11-08T04:06:42.832Z,54.80
2022-11-08T04:08:14.580Z,55.26
2022-11-08T04:09:46.372Z,54.90
2022-11-08T04:11:36.399Z,55.08
2022-11-08T04:13:27.160Z,55.13
2022-11-08T04:15:17.192Z,54.94
2022-11-08T04:16:48.859Z,55.30
2022-11-08T04:18:56.356Z,55.22
2022-11-08T04:20:46.415Z,55.27
2022-11-08T04:22:17.987Z,54.85
2022-11-08T04:23:49.840Z,54.79
2022-11-08T04:25:21.385Z,55.04
2022-11-08T04:26:52.862Z,55.44
2022-11-08T04:28:25.530Z,55.38
2022-11-08T04:29:57.799Z,55.33
2022-11-08T04:31:29.317Z,54.86
2022-11-08T04:33:01.763Z,55.08
2022-11-08T04:34:33.312Z,54.73
2022-11-08T04:36:05.921Z,55.26
2022-11-08T04:37:37.492Z,55.13
2022-11-08T04:39:09.167Z,55.03
2022-11-08T04:40:40.688Z,55.03
2022-11-08T04:42:12.314Z,54.98
2022-11-08T04:43:43.940Z,54.96
2022-11-08T04:45:15.561Z,55.03
2022-11-08T04:46:47.064Z,54.98
2022-11-08T04:48:19.058Z,55.50
2022-11-08T04:49:50.976Z,55.12
2022-11-08T04:51:29.358Z,55.23
2022-11-08T04:53:01.434Z,55.17
2022-11-08T04:54:32.970Z,54.95
2022-11-08T04:56:08.484Z,55.60
2022-11-08T04:57:40.298Z,55.29
2022-11-08T04:59:12.400Z,55.02
2022-11-08T05:00:44.080Z,55.16
2022-11-08T05:02:15.989Z,55.57
2022-11-08T05:03:48.312Z,55.24
2022-11-08T05:05:19.964Z,55.31
2022-11-08T05:06:51.507Z,55.51
2022-11-08T05:08:23.081Z,55.79
2022-11-08T05:09:59.875Z,55.63
2022-11-08T05:11:33.798Z,55.49
2022-11-08T05:13:05.772Z,55.55
2022-11-08T05:14:37.852Z,55.33
2022-11-08T05:16:16.262Z,55.47
2022-11-08T05:17:47.813Z,55.70
2022-11-08T05:19:39.554Z,55.44
2022-11-08T05:21:30.197Z,55.48
2022-11-08T05:23:20.470Z,55.11
2022-11-08T05:24:52.105Z,55.32
2022-11-08T05:26:23.838Z,54.77
2022-11-08T05:27:55.376Z,54.58
2022-11-08T05:29:27.019Z,54.74
2022-11-08T05:30:58.707Z,55.10
2022-11-08T05:32:30.190Z,55.04
2022-11-08T05:34:01.851Z,55.46
2022-11-08T05:35:33.961Z,55.63
2022-11-08T05:37:05.747Z,55.22
2022-11-08T05:38:37.512Z,55.82
2022-11-08T05:40:09.616Z,55.76
2022-11-08T05:41:41.169Z,56.05
2022-11-08T05:43:12.819Z,55.49
2022-11-08T05:44:44.691Z,55.10
2022-11-08T05:46:16.670Z,55.40
2022-11-08T05:47:48.290Z,55.53
2022-11-08T05:49:19.955Z,55.67
2022-11-08T05:50:52.146Z,55.78
2022-11-08T05:52:23.709Z,55.72
2022-11-08T05:53:55.265Z,55.58
2022-11-08T05:55:27.003Z,55.78
2022-11-08T05:56:58.575Z,55.50
2022-11-08T05:58:30.406Z,55.55
2022-11-08T06:00:02.276Z,55.51
2022-11-08T06:01:34.228Z,55.47
2022-11-08T06:03:06.246Z,55.31
2022-11-08T06:04:37.879Z,55.43
2022-11-08T06:06:13.473Z,55.83
2022-11-08T06:07:45.049Z,55.44
2022-11-08T06:09:16.744Z,55.75
2022-11-08T06:10:48.361Z,55.82
2022-11-08T06:12:20.279Z,55.79
2022-11-08T06:13:52.212Z,55.87
2022-11-08T06:15:23.812Z,55.66
2022-11-08T06:16:55.370Z,55.96
2022-11-08T06:18:27.026Z,56.02
2022-11-08T06:19:58.705Z,56.04
2022-11-08T06:21:30.385Z,56.01
2022-11-08T06:23:02.348Z,55.87
2022-11-08T06:24:33.980Z,55.84
2022-11-08T06:26:05.974Z,55.68
2022-11-08T06:27:37.782Z,55.90
2022-11-08T06:29:09.392Z,55.89
2022-11-08T06:30:41.420Z,55.70
2022-11-08T06:32:13.624Z,55.72
2022-11-08T06:33:45.688Z,55.70
2022-11-08T06:35:17.240Z,55.20
2022-11-08T06:36:48.913Z,55.34
2022-11-08T06:38:20.713Z,55.10
2022-11-08T06:39:52.528Z,55.20
2022-11-08T06:41:24.530Z,55.53
2022-11-08T06:42:56.362Z,55.52
2022-11-08T06:44:27.964Z,55.83
2022-11-08T06:46:00.040Z,55.50
2022-11-08T06:47:31.768Z,55.42
2022-11-08T06:49:03.246Z,55.41
2022-11-08T06:50:34.939Z,55.59
2022-11-08T06:52:06.464Z,55.65
2022-11-08T06:53:38.071Z,55.74
2022-11-08T06:55:09.783Z,55.71
2022-11-08T06:56:42.051Z,55.61
2022-11-08T06:58:13.641Z,55.27
2022-11-08T06:59:45.256Z,55.66
2022-11-08T07:01:17.018Z,55.57
2022-11-08T07:02:53.303Z,55.61
2022-11-08T07:04:25.043Z,55.38
2022-11-08T07:05:56.549Z,55.49
2022-11-08T07:07:28.173Z,55.45
2022-11-08T07:08:59.854Z,55.39
2022-11-08T07:10:31.789Z,55.26
2022-11-08T07:12:03.498Z,55.20
2022-11-08T07:13:35.182Z,55.22
2022-11-08T07:15:07.017Z,55.03
2022-11-08T07:16:38.761Z,55.09
2022-11-08T07:18:11.390Z,55.08
2022-11-08T07:19:43.141Z,55.14
2022-11-08T07:21:14.874Z,55.11
2022-11-08T07:22:46.543Z,55.05
2022-11-08T07:24:18.084Z,55.00
2022-11-08T07:25:49.804Z,54.93
2022-11-08T07:27:21.424Z,55.07
2022-11-08T07:28:53.048Z,54.70
2022-11-08T07:30:24.721Z,54.58
2022-11-08T07:31:56.482Z,54.60
2022-11-08T07:33:28.036Z,54.83
2022-11-08T07:34:59.825Z,54.96
2022-11-08T07:36:31.349Z,55.02
2022-11-08T07:38:02.973Z,54.82
2022-11-08T07:39:34.549Z,54.95
2022-11-08T07:41:06.195Z,55.24
2022-11-08T07:43:04.852Z,54.83
2022-11-08T07:44:30.081Z,54.74
2022-11-08T07:46:02.302Z,54.62
2022-11-08T07:47:33.907Z,54.44
2022-11-08T07:49:05.513Z,54.20
2022-11-08T07:50:37.067Z,54.69
2022-11-08T07:52:08.846Z,54.67
2022-11-08T07:53:40.610Z,54.30
2022-11-08T07:55:12.712Z,54.39
2022-11-08T07:56:44.287Z,54.27
2022-11-08T07:58:16.268Z,54.49
2022-11-08T07:59:47.938Z,54.21
2022-11-08T08:01:19.944Z,54.01
2022-11-08T08:02:52.048Z,54.32
2022-11-08T08:04:23.768Z,54.33
2022-11-08T08:06:00.507Z,54.36
2022-11-08T08:07:32.548Z,54.46
2022-11-08T08:09:04.307Z,54.14
2022-11-08T08:10:36.038Z,53.98
2022-11-08T08:12:08.335Z,53.87
2022-11-08T08:13:39.975Z,53.84
2022-11-08T08:15:11.498Z,53.75
2022-11-08T08:16:43.587Z,53.82
2022-11-08T08:18:17.619Z,53.52
2022-11-08T08:19:49.402Z,53.62
2022-11-08T08:21:21.453Z,53.46
2022-11-08T08:22:53.300Z,53.42
2022-11-08T08:24:26.763Z,53.35
2022-11-08T08:25:58.498Z,53.41
2022-11-08T08:27:30.083Z,53.38
2022-11-08T08:29:02.260Z,53.15
2022-11-08T08:30:34.651Z,53.22
2022-11-08T08:32:06.370Z,53.37
2022-11-08T08:33:38.415Z,53.35
2022-11-08T08:35:10.572Z,53.17
2022-11-08T08:36:42.501Z,52.92
2022-11-08T08:38:14.239Z,52.96
2022-11-08T08:39:46.861Z,52.56
2022-11-08T08:41:18.855Z,52.95
2022-11-08T08:42:50.429Z,52.59
2022-11-08T08:44:21.960Z,52.31
2022-11-08T08:45:54.596Z,52.02
2022-11-08T08:47:26.562Z,52.12
2022-11-08T08:48:58.124Z,52.19
2022-11-08T08:50:30.151Z,51.91
2022-11-08T08:52:02.250Z,51.85
2022-11-08T08:53:35.283Z,52.29
2022-11-08T08:55:07.171Z,52.34
2022-11-08T08:56:38.858Z,52.32
2022-11-08T08:58:11.185Z,52.19
2022-11-08T09:03:11.489Z,51.56
2022-11-08T09:04:43.117Z,51.46
2022-11-08T09:06:14.871Z,51.46
2022-11-08T09:07:46.489Z,51.18
2022-11-08T09:09:18.248Z,51.44
2022-11-08T09:10:55.980Z,51.14
2022-11-08T09:12:28.004Z,51.26
2022-11-08T09:13:59.890Z,51.24
2022-11-08T09:15:31.512Z,51.00
2022-11-08T09:17:03.472Z,50.79
2022-11-08T09:18:35.396Z,50.65
2022-11-08T09:20:07.469Z,50.62
2022-11-08T09:21:39.338Z,50.45
2022-11-08T09:23:11.868Z,50.50
2022-11-08T09:24:43.536Z,50.61
2022-11-08T09:26:15.173Z,50.53
2022-11-08T09:27:47.311Z,50.48
2022-11-08T09:29:19.077Z,50.21
2022-11-08T09:30:50.594Z,49.95
2022-11-08T09:32:33.765Z,49.96
2022-11-08T09:34:16.282Z,49.76
2022-11-08T09:35:54.014Z,49.87
2022-11-08T09:37:26.049Z,49.86
2022-11-08T09:38:58.298Z,49.93
2022-11-08T09:40:40.424Z,49.58
2022-11-08T09:42:14.704Z,49.59
2022-11-08T09:43:53.176Z,49.63
2022-11-08T09:45:25.757Z,49.16
2022-11-08T09:46:57.778Z,49.17
2022-11-08T09:48:34.331Z,49.24
2022-11-08T09:50:07.086Z,49.15
2022-11-08T09:51:38.808Z,49.08
2022-11-08T09:53:14.287Z,49.03
2022-11-08T09:54:46.991Z,48.85
2022-11-08T09:56:21.501Z,48.78
2022-11-08T09:58:09.751Z,48.91
2022-11-08T09:59:45.963Z,48.80
2022-11-08T10:01:17.686Z,48.59
2022-11-08T10:02:49.608Z,48.67
2022-11-08T10:04:22.823Z,48.68
2022-11-08T10:05:54.439Z,48.34
2022-11-08T10:07:29.440Z,48.41
2022-11-08T10:09:07.025Z,48.45
2022-11-08T10:10:57.612Z,48.43
2022-11-08T10:13:01.800Z,48.16
2022-11-08T10:14:52.290Z,48.41
2022-11-08T10:16:44.753Z,48.32
2022-11-08T10:18:19.398Z,48.42
2022-11-08T10:19:51.185Z,48.06
2022-11-08T10:21:38.009Z,47.89
2022-11-08T10:23:24.946Z,47.80
2022-11-08T10:25:03.847Z,47.72
2022-11-08T10:26:36.166Z,47.67
2022-11-08T10:28:08.180Z,47.51
2022-11-08T10:29:45.559Z,47.22
2022-11-08T10:31:20.053Z,47.20
2022-11-08T10:32:55.401Z,46.87
2022-11-08T10:34:28.389Z,46.71
2022-11-08T10:36:02.647Z,46.58
2022-11-08T10:37:34.602Z,46.58
2022-11-08T10:39:11.657Z,46.43
2022-11-08T10:40:45.128Z,46.24
2022-11-08T10:42:21.825Z,46.07
2022-11-08T10:43:54.517Z,45.88
2022-11-08T10:45:26.369Z,45.81
2022-11-08T10:46:58.029Z,45.97
2022-11-08T10:48:32.599Z,45.48
2022-11-08T10:50:20.101Z,45.47
2022-11-08T10:51:54.535Z,45.37
2022-11-08T10:53:26.526Z,45.14
2022-11-08T10:54:58.704Z,44.76
2022-11-08T10:56:33.019Z,44.84
2022-11-08T10:58:26.000Z,44.39
2022-11-08T10:59:57.857Z,44.28
2022-11-08T11:01:30.306Z,44.21
2022-11-08T11:03:03.149Z,44.45
2022-11-08T11:04:35.341Z,44.33
2022-11-08T11:06:07.263Z,43.93
2022-11-08T11:07:38.858Z,44.15
2022-11-08T11:09:20.709Z,44.01
2022-11-08T11:10:52.371Z,43.74
2022-11-08T11:12:24.072Z,43.45
2022-11-08T11:14:16.599Z,42.98
2022-11-08T11:15:56.934Z,43.19
2022-11-08T11:17:35.577Z,43.07
2022-11-08T11:19:13.853Z,42.71
2022-11-08T11:20:57.863Z,42.92
2022-11-08T11:22:33.080Z,43.12
2022-11-08T11:24:08.547Z,42.92
2022-11-08T11:25:40.209Z,42.87
2022-11-08T11:27:19.933Z,42.70
2022-11-08T11:29:10.051Z,42.71
2022-11-08T11:30:42.890Z,42.67
2022-11-08T11:32:33.705Z,42.25
2022-11-08T11:34:17.542Z,42.13
2022-11-08T11:35:53.477Z,42.22
2022-11-08T11:37:27.977Z,42.26
2022-11-08T11:38:59.608Z,42.13
2022-11-08T11:40:35.439Z,41.85
2022-11-08T11:44:25.812Z,41.71
2022-11-08T11:46:00.560Z,41.48
2022-11-08T11:47:33.534Z,41.98
2022-11-08T11:49:06.998Z,41.85
2022-11-08T11:50:39.276Z,41.49
2022-11-08T11:52:14.842Z,41.60
2022-11-08T11:53:48.914Z,41.31
2022-11-08T11:55:20.702Z,41.34
2022-11-08T11:56:56.945Z,41.22
2022-11-08T11:58:29.658Z,40.89
2022-11-08T12:00:05.705Z,41.01
2022-11-08T12:01:44.228Z,40.64
2022-11-08T12:03:16.360Z,40.50
2022-11-08T12:05:06.800Z,40.78
2022-11-08T12:06:48.924Z,40.43
2022-11-08T12:08:26.787Z,40.63
2022-11-08T12:10:14.109Z,40.52
2022-11-08T12:12:04.704Z,40.29
2022-11-08T12:13:36.550Z,40.48
2022-11-08T12:15:12.046Z,40.07
2022-11-08T12:16:55.465Z,40.26
2022-11-08T12:18:42.556Z,39.69
2022-11-08T12:20:34.957Z,39.59
2022-11-08T12:22:12.617Z,39.47
2022-11-08T12:23:53.543Z,39.56
2022-11-08T12:25:31.718Z,39.43
2022-11-08T12:27:22.396Z,39.48
2022-11-08T12:29:06.909Z,39.38
2022-11-08T12:30:41.810Z,39.18
2022-11-08T12:32:16.297Z,39.21
2022-11-08T12:34:23.089Z,39.27
2022-11-08T12:35:54.816Z,38.90
2022-11-08T12:37:35.694Z,38.69
2022-11-08T12:39:22.198Z,38.61
2022-11-08T12:40:57.705Z,38.46
2022-11-08T12:42:43.347Z,38.44
2022-11-08T12:44:37.800Z,38.64
2022-11-08T12:46:13.299Z,38.41
2022-11-08T12:47:45.778Z,38.18
2022-11-08T12:49:22.834Z,38.43
2022-11-08T12:51:01.270Z,38.56
2022-11-08T12:52:40.695Z,38.05
2022-11-08T12:54:31.119Z,38.12
2022-11-08T12:56:03.060Z,38.10
2022-11-08T12:57:34.692Z,38.14
2022-11-08T12:59:10.943Z,38.21
2022-11-08T13:00:43.762Z,38.35
2022-11-08T13:02:18.468Z,37.99
2022-11-08T13:03:53.245Z,38.19
2022-11-08T13:05:32.162Z,37.70
2022-11-08T13:07:04.315Z,37.94
2022-11-08T13:08:38.436Z,37.75
2022-11-08T13:10:21.627Z,37.55
2022-11-08T13:11:56.415Z,37.38
2022-11-08T13:13:39.879Z,37.59
2022-11-08T13:15:18.922Z,37.19
2022-11-08T13:17:08.903Z,37.25
2022-11-08T13:18:43.524Z,37.34
2022-11-08T13:20:33.906Z,37.38
2022-11-08T13:22:13.024Z,37.24
2022-11-08T13:23:44.780Z,37.46
2022-11-08T13:25:16.319Z,37.27
2022-11-08T13:26:48.510Z,37.10
2022-11-08T13:28:35.703Z,37.10
2022-11-08T13:30:16.584Z,37.03
2022-11-08T13:31:57.608Z,36.88
2022-11-08T13:33:29.400Z,36.99
2022-11-08T13:35:19.791Z,37.22
2022-11-08T13:37:24.439Z,37.58
2022-11-08T13:39:17.759Z,37.38
2022-11-08T13:41:07.278Z,37.27
2022-11-08T13:42:40.247Z,37.22
2022-11-08T13:44:31.847Z,37.35
2022-11-08T13:46:28.248Z,37.51
2022-11-08T13:48:03.079Z,37.06
2022-11-08T13:49:35.250Z,37.22
2022-11-08T13:51:25.757Z,37.42
2022-11-08T13:53:04.544Z,37.32
2022-11-08T13:54:46.719Z,37.26
2022-11-08T13:56:22.533Z,37.10
2022-11-08T13:57:55.411Z,37.02
2022-11-08T13:59:33.303Z,37.08
2022-11-08T14:01:28.147Z,36.80
2022-11-08T14:02:59.724Z,37.09
2022-11-08T14:04:33.811Z,36.80
2022-11-08T14:06:05.495Z,36.80
2022-11-08T14:07:37.144Z,36.81
2022-11-08T14:09:18.488Z,36.86
2022-11-08T14:11:11.934Z,36.83
2022-11-08T14:12:45.883Z,36.94
2022-11-08T14:14:22.914Z,36.86
2022-11-08T14:15:54.531Z,37.14
2022-11-08T14:17:28.945Z,36.90
2022-11-08T14:19:18.014Z,36.89
2022-11-08T14:20:50.600Z,36.94
2022-11-08T14:22:24.491Z,37.04
2022-11-08T14:23:56.142Z,37.10
2022-11-08T14:25:28.071Z,37.17
2022-11-08T14:26:59.744Z,37.12
2022-11-08T14:28:35.022Z,37.15
2022-11-08T14:30:13.868Z,37.18
2022-11-08T14:31:45.552Z,37.28
2022-11-08T14:33:19.103Z,37.40
2022-11-08T14:34:51.773Z,37.60
2022-11-08T14:36:23.535Z,37.44
2022-11-08T14:37:55.169Z,37.43
2022-11-08T14:39:28.897Z,37.48
2022-11-08T14:41:01.146Z,37.51
2022-11-08T14:42:33.641Z,37.48
2022-11-08T14:44:05.474Z,37.59
2022-11-08T14:45:43.234Z,37.77
2022-11-08T14:47:22.225Z,37.63
2022-11-08T14:48:57.111Z,37.77
2022-11-08T14:50:30.341Z,37.75
2022-11-08T14:52:07.453Z,37.83
2022-11-08T14:53:46.382Z,37.93
2022-11-08T14:55:23.216Z,37.83
2022-11-08T14:56:56.070Z,37.99
2022-11-08T14:58:28.928Z,38.29
2022-11-08T15:00:05.609Z,38.31
2022-11-08T15:01:37.330Z,38.40
2022-11-08T15:03:11.944Z,38.60
2022-11-08T15:04:44.752Z,38.69
2022-11-08T15:06:16.360Z,38.62
2022-11-08T15:07:48.086Z,38.66
2022-11-08T15:09:24.626Z,38.74
2022-11-08T15:11:01.097Z,38.70
2022-11-08T15:12:33.075Z,39.12
2022-11-08T15:14:08.561Z,38.94
2022-11-08T15:15:40.322Z,39.22
2022-11-08T15:17:28.824Z,39.28
2022-11-08T15:19:00.865Z,39.32
2022-11-08T15:20:33.228Z,39.37
2022-11-08T15:22:22.974Z,39.29
2022-11-08T15:23:57.206Z,39.29
2022-11-08T15:25:29.839Z,39.59
2022-11-08T15:27:12.135Z,39.74
2022-11-08T15:28:53.657Z,40.00
2022-11-08T15:30:28.455Z,39.92
2022-11-08T15:32:01.658Z,40.09
2022-11-08T15:33:34.571Z,39.95
2022-11-08T15:35:07.072Z,40.02
2022-11-08T15:36:38.891Z,40.19
2022-11-08T15:38:20.242Z,40.20
2022-11-08T15:39:52.361Z,40.41
2022-11-08T15:41:30.503Z,40.49
2022-11-08T15:43:02.432Z,40.51
2022-11-08T15:44:34.078Z,40.75
2022-11-08T15:46:05.757Z,40.87
2022-11-08T15:47:45.056Z,40.85
2022-11-08T15:49:29.221Z,40.97
2022-11-08T15:51:01.171Z,41.21
2022-11-08T15:52:32.907Z,41.21
2022-11-08T15:54:04.933Z,41.07
2022-11-08T15:55:37.532Z,41.45
2022-11-08T15:59:43.559Z,41.49
2022-11-08T16:01:18.109Z,41.78
2022-11-08T16:02:49.951Z,41.66
2022-11-08T16:04:21.548Z,41.79
2022-11-08T16:05:53.112Z,41.81
2022-11-08T16:07:24.792Z,41.80
2022-11-08T16:08:56.662Z,41.82
2022-11-08T16:10:28.452Z,42.26
2022-11-08T16:12:01.001Z,42.19
2022-11-08T16:13:34.087Z,42.24
2022-11-08T16:15:06.140Z,42.40
2022-11-08T16:16:37.731Z,42.65
2022-11-08T16:18:09.883Z,42.30
2022-11-08T16:19:41.716Z,42.57
2022-11-08T16:21:13.705Z,42.77
2022-11-08T16:22:45.755Z,42.80
2022-11-08T16:24:17.591Z,42.79
2022-11-08T16:25:52.687Z,42.75
2022-11-08T16:27:24.495Z,42.93
2022-11-08T16:28:56.336Z,42.76
2022-11-08T16:30:28.186Z,42.64
2022-11-08T16:31:59.804Z,42.61
2022-11-08T16:33:31.772Z,42.81
2022-11-08T16:35:03.480Z,42.66
2022-11-08T16:36:35.101Z,42.60
2022-11-08T16:38:08.849Z,42.77
2022-11-08T16:39:40.464Z,42.52
2022-11-08T16:41:12.479Z,42.51
2022-11-08T16:42:44.891Z,42.44
2022-11-08T16:44:16.891Z,42.77
2022-11-08T16:46:05.032Z,42.59
2022-11-08T16:47:37.511Z,43.05
2022-11-08T16:49:17.045Z,42.49
2022-11-08T16:50:48.833Z,42.93
2022-11-08T16:52:20.613Z,42.41
2022-11-08T16:53:52.784Z,42.55
2022-11-08T16:55:25.291Z,42.64
2022-11-08T16:57:20.802Z,42.58
2022-11-08T16:58:49.253Z,42.56
2022-11-08T17:00:20.909Z,42.69
2022-11-08T17:01:53.043Z,42.81
2022-11-08T17:03:25.346Z,42.85
2022-11-08T17:04:57.161Z,42.97
2022-11-08T17:06:28.997Z,43.13
2022-11-08T17:08:00.699Z,43.16
2022-11-08T17:09:32.402Z,43.36
2022-11-08T17:11:04.258Z,43.22
2022-11-08T17:12:36.026Z,43.54
2022-11-08T17:14:08.145Z,43.80
2022-11-08T17:15:39.826Z,43.84
2022-11-08T17:17:11.996Z,43.39
2022-11-08T17:18:45.661Z,43.64
2022-11-08T17:20:20.356Z,43.53
2022-11-08T17:21:51.884Z,43.39
2022-11-08T17:23:23.892Z,43.52
2022-11-08T17:24:55.555Z,43.55
2022-11-08T17:26:27.136Z,43.50
2022-11-08T17:27:58.736Z,44.11
2022-11-08T17:29:30.305Z,43.77
2022-11-08T17:31:15.063Z,44.02
2022-11-08T17:32:46.785Z,44.46
2022-11-08T17:34:18.391Z,44.15
2022-11-08T17:35:49.993Z,44.64
2022-11-08T17:37:22.006Z,44.43
2022-11-08T17:38:53.597Z,44.41
2022-11-08T17:40:25.230Z,44.49
2022-11-08T17:41:57.037Z,44.04
2022-11-08T17:43:28.705Z,44.62
2022-11-08T17:45:00.439Z,44.74
2022-11-08T17:46:32.236Z,44.54
2022-11-08T17:48:04.053Z,44.98
2022-11-08T17:49:39.899Z,44.79
2022-11-08T17:51:15.813Z,44.65
2022-11-08T17:52:47.548Z,44.85
2022-11-08T17:54:19.307Z,44.94
2022-11-08T17:55:54.773Z,45.17
2022-11-08T17:57:26.447Z,45.39
2022-11-08T17:58:58.222Z,45.28
2022-11-08T18:00:30.043Z,45.24
2022-11-08T18:02:02.702Z,45.21
2022-11-08T18:03:34.685Z,45.17
2022-11-08T18:05:06.470Z,45.08
2022-11-08T18:06:41.118Z,45.05
2022-11-08T18:08:12.729Z,45.07
2022-11-08T18:09:44.833Z,45.15
2022-11-08T18:11:16.405Z,44.89
2022-11-08T18:12:48.176Z,45.30
2022-11-08T18:14:25.503Z,45.22
2022-11-08T18:16:09.828Z,45.34
2022-11-08T18:17:41.616Z,45.40
2022-11-08T18:19:13.496Z,45.63
2022-11-08T18:20:45.205Z,45.52
2022-11-08T18:22:16.825Z,45.56
2022-11-08T18:23:48.555Z,45.71
2022-11-08T18:25:20.346Z,45.68
2022-11-08T18:26:52.086Z,45.71
2022-11-08T18:28:24.265Z,45.53
2022-11-08T18:29:55.886Z,45.86
2022-11-08T18:31:28.275Z,45.79
2022-11-08T18:32:59.861Z,45.90
2022-11-08T18:34:31.483Z,45.91
2022-11-08T18:36:06.588Z,45.49
2022-11-08T18:37:38.330Z,45.50
2022-11-08T18:39:11.354Z,45.33
2022-11-08T18:40:48.554Z,45.40
2022-11-08T18:42:20.155Z,45.54
2022-11-08T18:43:52.533Z,46.02
2022-11-08T18:45:24.368Z,45.77
2022-11-08T18:46:56.145Z,45.75
2022-11-08T18:48:27.839Z,46.29
2022-11-08T18:50:02.147Z,46.03
2022-11-08T18:51:33.831Z,46.08
2022-11-08T18:53:07.195Z,46.23
2022-11-08T18:54:39.085Z,46.53
2022-11-08T18:56:10.937Z,46.55
2022-11-08T18:57:43.251Z,46.60
2022-11-08T18:59:15.289Z,46.34
2022-11-08T19:00:46.898Z,46.30
2022-11-08T19:02:18.633Z,46.60
2022-11-08T19:03:50.289Z,46.62
2022-11-08T19:05:21.898Z,46.52
2022-11-08T19:06:54.925Z,46.50
2022-11-08T19:08:27.865Z,46.73
2022-11-08T19:09:59.511Z,46.41
2022-11-08T19:11:31.280Z,46.59
2022-11-08T19:13:02.858Z,46.45
2022-11-08T19:14:35.597Z,46.41
2022-11-08T19:16:08.631Z,46.13
2022-11-08T19:17:40.156Z,46.44
2022-11-08T19:19:11.914Z,46.48
2022-11-08T19:20:43.533Z,46.30
2022-11-08T19:22:15.156Z,46.41
2022-11-08T19:23:46.926Z,46.83
2022-11-08T19:25:18.877Z,46.74
2022-11-08T19:26:50.466Z,46.89
2022-11-08T19:28:21.995Z,47.03
2022-11-08T19:29:53.854Z,46.92
2022-11-08T19:31:25.574Z,47.06
2022-11-08T19:32:57.172Z,46.89
2022-11-08T19:34:28.791Z,46.84
2022-11-08T19:36:01.261Z,46.91
2022-11-08T19:37:32.901Z,46.94
2022-11-08T19:39:04.833Z,47.04
2022-11-08T19:40:40.695Z,46.88
2022-11-08T19:42:12.273Z,47.05
2022-11-08T19:43:44.175Z,47.14
2022-11-08T19:45:15.731Z,47.32
2022-11-08T19:46:47.622Z,47.45
2022-11-08T19:48:21.795Z,47.56
2022-11-08T19:49:53.580Z,47.25
2022-11-08T19:51:26.104Z,47.16
2022-11-08T19:52:58.607Z,47.20
2022-11-08T19:54:30.336Z,47.25
2022-11-08T19:56:03.265Z,47.20
2022-11-08T19:57:36.057Z,47.38
2022-11-08T19:59:07.735Z,47.47
2022-11-08T20:00:39.609Z,47.65
2022-11-08T20:02:11.387Z,47.75
2022-11-08T20:03:43.169Z,47.78
2022-11-08T20:05:14.756Z,47.85
2022-11-08T20:06:46.642Z,48.00
2022-11-08T20:08:18.942Z,47.96
2022-11-08T20:09:50.532Z,47.89
2022-11-08T20:11:22.923Z,47.58
2022-11-08T20:12:54.394Z,47.90
2022-11-08T20:14:26.040Z,48.35
2022-11-08T20:16:07.724Z,48.34
2022-11-08T20:17:39.243Z,48.48
2022-11-08T20:19:11.752Z,48.13
2022-11-08T20:20:44.632Z,48.11
2022-11-08T20:22:16.159Z,48.35
2022-11-08T20:23:48.030Z,48.30